createdAt,value
2022-11-29T00:00:39.772Z,989.24
2022-11-29T00:01:39.749Z,989.21
2022-11-29T00:02:39.817Z,989.22
2022-11-29T00:03:39.708Z,989.27
2022-11-29T00:04:39.706Z,989.25
2022-11-29T00:05:39.699Z,989.25
2022-11-29T00:06:39.670Z,989.27
2022-11-29T00:07:39.744Z,989.23
2022-11-29T00:08:39.649Z,989.27
2022-11-29T00:09:39.676Z,989.24
2022-11-29T00:10:39.650Z,989.27
2022-11-29T00:11:39.603Z,989.24
2022-11-29T00:12:39.689Z,989.26
2022-11-29T00:13:39.582Z,989.23
2022-11-29T00:14:39.663Z,989.26
2022-11-29T00:15:39.590Z,989.24
2022-11-29T00:16:39.579Z,989.28
2022-11-29T00:17:39.535Z,989.26
2022-11-29T00:18:39.567Z,989.27
2022-11-29T00:19:39.601Z,989.31
2022-11-29T00:20:39.531Z,989.26
2022-11-29T00:21:39.498Z,989.25
2022-11-29T00:22:39.472Z,989.24
2022-11-29T00:23:39.462Z,989.25
2022-11-29T00:24:39.586Z,989.28
2022-11-29T00:25:39.454Z,989.25
2022-11-29T00:26:39.419Z,989.27
2022-11-29T00:27:39.419Z,989.23
2022-11-29T00:28:39.377Z,989.20
2022-11-29T00:29:39.446Z,989.18
2022-11-29T00:30:39.432Z,989.23
2022-11-29T00:31:39.388Z,989.19
2022-11-29T00:32:39.326Z,989.21
2022-11-29T00:33:39.327Z,989.20
2022-11-29T00:34:39.987Z,989.22
2022-11-29T00:35:39.296Z,989.16
2022-11-29T00:36:39.322Z,989.20
2022-11-29T00:37:40.073Z,989.16
2022-11-29T00:38:39.461Z,989.17
2022-11-29T00:39:39.347Z,989.17
2022-11-29T00:40:39.387Z,989.13
2022-11-29T00:41:39.246Z,989.16
2022-11-29T00:42:39.224Z,989.17
2022-11-29T00:43:39.256Z,989.14
2022-11-29T00:44:39.351Z,989.13
2022-11-29T00:45:39.426Z,989.14
2022-11-29T00:46:39.176Z,989.13
2022-11-29T00:47:39.146Z,989.15
2022-11-29T00:48:39.115Z,989.14
2022-11-29T00:49:39.871Z,989.16
2022-11-29T00:50:39.095Z,989.13
2022-11-29T00:51:39.998Z,989.13
2022-11-29T00:52:39.065Z,989.18
2022-11-29T00:53:39.055Z,989.20
2022-11-29T00:54:39.051Z,989.15
2022-11-29T00:55:39.034Z,989.13
2022-11-29T00:56:39.048Z,989.12
2022-11-29T00:57:39.015Z,989.13
2022-11-29T00:58:38.995Z,989.13
2022-11-29T00:59:38.995Z,989.09
2022-11-29T01:00:38.992Z,989.07
2022-11-29T01:01:39.065Z,989.09
2022-11-29T01:02:38.964Z,989.11
2022-11-29T01:03:38.937Z,989.13
2022-11-29T01:04:38.921Z,989.18
2022-11-29T01:05:39.691Z,989.14
2022-11-29T01:06:38.923Z,989.16
2022-11-29T01:07:38.914Z,989.13
2022-11-29T01:08:38.865Z,989.14
2022-11-29T01:09:38.850Z,989.13
2022-11-29T01:10:38.839Z,989.12
2022-11-29T01:11:38.879Z,989.16
2022-11-29T01:12:38.823Z,989.14
2022-11-29T01:13:38.801Z,989.19
2022-11-29T01:14:38.782Z,989.10
2022-11-29T01:15:38.781Z,989.14
2022-11-29T01:16:38.807Z,989.18
2022-11-29T01:17:38.783Z,989.20
2022-11-29T01:18:38.737Z,989.21
2022-11-29T01:19:38.721Z,989.24
2022-11-29T01:20:38.765Z,989.21
2022-11-29T01:21:38.761Z,989.23
2022-11-29T01:22:38.702Z,989.22
2022-11-29T01:23:38.807Z,989.21
2022-11-29T01:24:38.720Z,989.22
2022-11-29T01:25:38.652Z,989.23
2022-11-29T01:26:38.672Z,989.20
2022-11-29T01:27:38.621Z,989.21
2022-11-29T01:28:38.611Z,989.25
2022-11-29T01:29:38.601Z,989.23
2022-11-29T01:30:38.632Z,989.21
2022-11-29T01:31:38.608Z,989.24
2022-11-29T01:32:38.551Z,989.24
2022-11-29T01:33:38.542Z,989.19
2022-11-29T01:34:39.471Z,989.25
2022-11-29T01:35:38.520Z,989.27
2022-11-29T01:36:38.531Z,989.28
2022-11-29T01:37:38.490Z,989.27
2022-11-29T01:38:38.470Z,989.27
2022-11-29T01:39:38.480Z,989.29
2022-11-29T01:40:38.460Z,989.31
2022-11-29T01:41:38.479Z,989.30
2022-11-29T01:42:38.419Z,989.33
2022-11-29T01:43:38.420Z,989.34
2022-11-29T01:44:38.455Z,989.36
2022-11-29T01:45:38.484Z,989.38
2022-11-29T01:46:38.521Z,989.32
2022-11-29T01:47:38.369Z,989.39
2022-11-29T01:48:38.340Z,989.39
2022-11-29T01:49:38.442Z,989.38
2022-11-29T01:50:38.319Z,989.38
2022-11-29T01:51:38.360Z,989.44
2022-11-29T01:52:38.290Z,989.41
2022-11-29T01:53:38.287Z,989.39
2022-11-29T01:54:38.259Z,989.37
2022-11-29T01:55:38.327Z,989.35
2022-11-29T01:56:38.267Z,989.40
2022-11-29T01:57:38.231Z,989.42
2022-11-29T01:58:38.209Z,989.45
2022-11-29T01:59:38.976Z,989.42
2022-11-29T02:00:38.718Z,989.45
2022-11-29T02:01:38.290Z,989.45
2022-11-29T02:02:38.231Z,989.43
2022-11-29T02:03:38.159Z,989.48
2022-11-29T02:04:38.182Z,989.40
2022-11-29T02:05:38.133Z,989.42
2022-11-29T02:06:38.141Z,989.45
2022-11-29T02:07:38.183Z,989.44
2022-11-29T02:08:38.317Z,989.42
2022-11-29T02:09:38.077Z,989.42
2022-11-29T02:10:38.066Z,989.44
2022-11-29T02:11:38.079Z,989.46
2022-11-29T02:12:38.027Z,989.43
2022-11-29T02:13:38.018Z,989.46
2022-11-29T02:14:38.096Z,989.45
2022-11-29T02:15:38.041Z,989.41
2022-11-29T02:16:38.015Z,989.43
2022-11-29T02:17:38.528Z,989.43
2022-11-29T02:18:37.965Z,989.41
2022-11-29T02:19:38.020Z,989.43
2022-11-29T02:20:37.927Z,989.43
2022-11-29T02:21:37.996Z,989.44
2022-11-29T02:22:37.985Z,989.48
2022-11-29T02:23:37.893Z,989.44
2022-11-29T02:24:37.946Z,989.46
2022-11-29T02:25:37.855Z,989.52
2022-11-29T02:26:37.885Z,989.48
2022-11-29T02:27:37.857Z,989.50
2022-11-29T02:28:37.831Z,989.49
2022-11-29T02:29:37.807Z,989.47
2022-11-29T02:30:37.866Z,989.55
2022-11-29T02:31:37.814Z,989.51
2022-11-29T02:32:37.777Z,989.50
2022-11-29T02:33:37.754Z,989.53
2022-11-29T02:34:37.757Z,989.54
2022-11-29T02:35:37.734Z,989.53
2022-11-29T02:36:37.751Z,989.53
2022-11-29T02:37:37.704Z,989.57
2022-11-29T02:38:38.758Z,989.58
2022-11-29T02:39:37.756Z,989.55
2022-11-29T02:40:37.673Z,989.61
2022-11-29T02:41:37.683Z,989.56
2022-11-29T02:42:37.654Z,989.60
2022-11-29T02:43:37.634Z,989.60
2022-11-29T02:44:37.631Z,989.60
2022-11-29T02:45:37.603Z,989.66
2022-11-29T02:46:37.624Z,989.59
2022-11-29T02:47:37.587Z,989.62
2022-11-29T02:48:37.583Z,989.60
2022-11-29T02:49:37.585Z,989.64
2022-11-29T02:50:37.555Z,989.63
2022-11-29T02:51:37.534Z,989.63
2022-11-29T02:52:37.562Z,989.65
2022-11-29T02:53:37.507Z,989.66
2022-11-29T02:54:37.824Z,989.58
2022-11-29T02:55:37.471Z,989.60
2022-11-29T02:56:37.476Z,989.60
2022-11-29T02:57:37.503Z,989.71
2022-11-29T02:58:37.452Z,989.65
2022-11-29T02:59:37.494Z,989.69
2022-11-29T03:00:37.431Z,989.72
2022-11-29T03:01:37.431Z,989.70
2022-11-29T03:02:37.478Z,989.71
2022-11-29T03:03:37.369Z,989.72
2022-11-29T03:04:37.373Z,989.73
2022-11-29T03:05:37.358Z,989.74
2022-11-29T03:06:37.332Z,989.77
2022-11-29T03:07:37.432Z,989.82
2022-11-29T03:08:37.410Z,989.79
2022-11-29T03:09:37.350Z,989.86
2022-11-29T03:10:37.287Z,989.85
2022-11-29T03:11:37.273Z,989.77
2022-11-29T03:12:37.302Z,989.83
2022-11-29T03:13:37.240Z,989.84
2022-11-29T03:14:37.226Z,989.77
2022-11-29T03:15:37.220Z,989.85
2022-11-29T03:16:42.574Z,989.81
2022-11-29T03:17:38.249Z,989.85
2022-11-29T03:18:37.175Z,989.89
2022-11-29T03:19:37.273Z,989.87
2022-11-29T03:20:37.153Z,989.89
2022-11-29T03:21:37.150Z,989.91
2022-11-29T03:22:37.149Z,989.91
2022-11-29T03:23:37.418Z,989.90
2022-11-29T03:24:37.423Z,989.89
2022-11-29T03:25:37.080Z,989.89
2022-11-29T03:26:37.077Z,989.89
2022-11-29T03:27:37.078Z,989.90
2022-11-29T03:28:37.049Z,989.88
2022-11-29T03:29:37.086Z,989.91
2022-11-29T03:30:37.039Z,989.90
2022-11-29T03:31:36.999Z,989.91
2022-11-29T03:32:37.051Z,989.95
2022-11-29T03:33:36.979Z,989.93
2022-11-29T03:34:36.990Z,989.97
2022-11-29T03:35:36.956Z,989.95
2022-11-29T03:36:36.948Z,989.99
2022-11-29T03:37:36.997Z,989.98
2022-11-29T03:38:36.921Z,989.95
2022-11-29T03:39:36.938Z,990.01
2022-11-29T03:40:36.902Z,990.01
2022-11-29T03:41:36.889Z,990.02
2022-11-29T03:42:36.906Z,990.02
2022-11-29T03:43:36.859Z,990.04
2022-11-29T03:44:36.853Z,990.02
2022-11-29T03:45:36.831Z,990.04
2022-11-29T03:46:36.872Z,990.03
2022-11-29T03:47:36.827Z,990.07
2022-11-29T03:48:36.797Z,990.01
2022-11-29T03:49:36.819Z,990.04
2022-11-29T03:50:37.057Z,990.04
2022-11-29T03:51:36.749Z,990.06
2022-11-29T03:52:36.765Z,990.13
2022-11-29T03:53:36.716Z,990.13
2022-11-29T03:54:36.785Z,990.12
2022-11-29T03:55:36.762Z,990.11
2022-11-29T03:56:36.687Z,990.18
2022-11-29T03:57:36.698Z,990.17
2022-11-29T03:58:36.656Z,990.13
2022-11-29T03:59:36.696Z,990.17
2022-11-29T04:00:36.676Z,990.22
2022-11-29T04:01:36.631Z,990.18
2022-11-29T04:02:36.674Z,990.21
2022-11-29T04:03:36.613Z,990.18
2022-11-29T04:04:36.622Z,990.22
2022-11-29T04:05:36.567Z,990.17
2022-11-29T04:06:36.594Z,990.20
2022-11-29T04:07:36.633Z,990.19
2022-11-29T04:08:36.535Z,990.18
2022-11-29T04:09:36.557Z,990.17
2022-11-29T04:10:36.523Z,990.20
2022-11-29T04:11:37.418Z,990.20
2022-11-29T04:12:36.510Z,990.14
2022-11-29T04:13:36.454Z,990.22
2022-11-29T04:14:36.518Z,990.21
2022-11-29T04:15:36.551Z,990.25
2022-11-29T04:16:36.414Z,990.22
2022-11-29T04:17:36.455Z,990.25
2022-11-29T04:18:36.397Z,990.21
2022-11-29T04:19:36.401Z,990.24
2022-11-29T04:20:40.384Z,990.26
2022-11-29T04:21:37.367Z,990.22
2022-11-29T04:22:36.383Z,990.27
2022-11-29T04:23:36.349Z,990.25
2022-11-29T04:24:36.313Z,990.25
2022-11-29T04:25:36.312Z,990.20
2022-11-29T04:26:36.296Z,990.20
2022-11-29T04:27:36.302Z,990.20
2022-11-29T04:28:36.251Z,990.23
2022-11-29T04:29:36.287Z,990.23
2022-11-29T04:30:36.239Z,990.23
2022-11-29T04:31:36.254Z,990.29
2022-11-29T04:32:36.264Z,990.29
2022-11-29T04:33:36.213Z,990.28
2022-11-29T04:34:36.205Z,990.25
2022-11-29T04:35:36.182Z,990.23
2022-11-29T04:36:36.162Z,990.31
2022-11-29T04:37:36.190Z,990.29
2022-11-29T04:38:36.236Z,990.28
2022-11-29T04:39:36.160Z,990.28
2022-11-29T04:40:36.111Z,990.33
2022-11-29T04:41:37.041Z,990.32
2022-11-29T04:42:37.148Z,990.32
2022-11-29T04:43:36.068Z,990.35
2022-11-29T04:44:36.049Z,990.31
2022-11-29T04:45:36.120Z,990.30
2022-11-29T04:46:36.234Z,990.32
2022-11-29T04:47:36.052Z,990.32
2022-11-29T04:48:36.008Z,990.35
2022-11-29T04:49:36.083Z,990.33
2022-11-29T04:50:36.050Z,990.32
2022-11-29T04:51:35.961Z,990.37
2022-11-29T04:52:35.990Z,990.35
2022-11-29T04:53:36.039Z,990.38
2022-11-29T04:54:35.938Z,990.37
2022-11-29T04:55:35.927Z,990.39
2022-11-29T04:56:35.907Z,990.38
2022-11-29T04:57:35.910Z,990.37
2022-11-29T04:58:35.879Z,990.42
2022-11-29T04:59:35.874Z,990.38
2022-11-29T05:00:35.849Z,990.39
2022-11-29T05:01:35.883Z,990.39
2022-11-29T05:02:35.930Z,990.44
2022-11-29T05:03:35.836Z,990.41
2022-11-29T05:04:35.796Z,990.43
2022-11-29T05:05:35.787Z,990.44
2022-11-29T05:06:35.769Z,990.43
2022-11-29T05:07:35.831Z,990.43
2022-11-29T05:08:35.762Z,990.41
2022-11-29T05:09:35.753Z,990.45
2022-11-29T05:10:35.739Z,990.46
2022-11-29T05:11:36.547Z,990.47
2022-11-29T05:12:36.448Z,990.44
2022-11-29T05:13:35.669Z,990.45
2022-11-29T05:14:35.674Z,990.45
2022-11-29T05:15:35.836Z,990.51
2022-11-29T05:16:35.658Z,990.44
2022-11-29T05:17:35.668Z,990.43
2022-11-29T05:18:35.938Z,990.50
2022-11-29T05:19:35.608Z,990.47
2022-11-29T05:20:35.589Z,990.45
2022-11-29T05:21:35.567Z,990.45
2022-11-29T05:22:35.597Z,990.45
2022-11-29T05:23:35.536Z,990.50
2022-11-29T05:24:35.550Z,990.49
2022-11-29T05:25:35.524Z,990.53
2022-11-29T05:26:35.527Z,990.54
2022-11-29T05:27:35.544Z,990.54
2022-11-29T05:28:36.446Z,990.56
2022-11-29T05:29:35.475Z,990.57
2022-11-29T05:30:35.456Z,990.64
2022-11-29T05:31:35.497Z,990.60
2022-11-29T05:32:35.476Z,990.61
2022-11-29T05:33:35.419Z,990.65
2022-11-29T05:34:35.585Z,990.61
2022-11-29T05:35:35.395Z,990.67
2022-11-29T05:36:35.386Z,990.67
2022-11-29T05:37:35.395Z,990.66
2022-11-29T05:38:35.375Z,990.71
2022-11-29T05:39:35.366Z,990.73
2022-11-29T05:40:35.347Z,990.72
2022-11-29T05:41:35.316Z,990.77
2022-11-29T05:42:36.166Z,990.73
2022-11-29T05:43:35.393Z,990.75
2022-11-29T05:44:35.275Z,990.77
2022-11-29T05:45:35.284Z,990.77
2022-11-29T05:46:35.299Z,990.77
2022-11-29T05:47:35.525Z,990.78
2022-11-29T05:48:35.314Z,990.72
2022-11-29T05:49:35.276Z,990.73
2022-11-29T05:50:35.217Z,990.78
2022-11-29T05:51:35.322Z,990.80
2022-11-29T05:52:35.206Z,990.82
2022-11-29T05:53:35.172Z,990.85
2022-11-29T05:54:35.175Z,990.87
2022-11-29T05:55:35.896Z,990.84
2022-11-29T05:56:35.149Z,990.82
2022-11-29T05:57:35.195Z,990.86
2022-11-29T05:58:35.873Z,990.89
2022-11-29T05:59:35.124Z,990.94
2022-11-29T06:00:35.092Z,990.90
2022-11-29T06:01:35.659Z,990.93
2022-11-29T06:02:35.108Z,990.92
2022-11-29T06:03:35.054Z,990.95
2022-11-29T06:04:35.036Z,990.95
2022-11-29T06:05:34.999Z,990.99
2022-11-29T06:06:35.775Z,990.96
2022-11-29T06:07:35.020Z,990.98
2022-11-29T06:08:34.992Z,991.00
2022-11-29T06:09:34.951Z,990.98
2022-11-29T06:10:34.954Z,991.03
2022-11-29T06:11:34.931Z,991.03
2022-11-29T06:12:34.981Z,990.99
2022-11-29T06:13:34.926Z,991.05
2022-11-29T06:14:35.000Z,991.05
2022-11-29T06:15:34.957Z,991.07
2022-11-29T06:16:34.920Z,991.09
2022-11-29T06:17:39.051Z,991.08
2022-11-29T06:18:34.858Z,991.07
2022-11-29T06:19:34.833Z,991.08
2022-11-29T06:20:34.810Z,991.07
2022-11-29T06:21:34.790Z,991.04
2022-11-29T06:22:34.791Z,991.06
2022-11-29T06:23:34.835Z,991.01
2022-11-29T06:24:34.761Z,991.07
2022-11-29T06:25:34.747Z,991.07
2022-11-29T06:26:34.741Z,991.07
2022-11-29T06:27:34.720Z,991.09
2022-11-29T06:28:35.780Z,991.07
2022-11-29T06:29:34.751Z,991.10
2022-11-29T06:30:34.689Z,991.10
2022-11-29T06:31:34.718Z,991.16
2022-11-29T06:32:34.660Z,991.15
2022-11-29T06:33:34.744Z,991.14
2022-11-29T06:34:34.638Z,991.19
2022-11-29T06:35:34.599Z,991.19
2022-11-29T06:36:34.631Z,991.17
2022-11-29T06:37:34.539Z,991.13
2022-11-29T06:38:34.679Z,991.19
2022-11-29T06:39:34.590Z,991.20
2022-11-29T06:40:34.519Z,991.17
2022-11-29T06:41:34.478Z,991.18
2022-11-29T06:42:34.549Z,991.17
2022-11-29T06:43:34.503Z,991.22
2022-11-29T06:44:34.501Z,991.18
2022-11-29T06:45:34.458Z,991.23
2022-11-29T06:46:34.448Z,991.24
2022-11-29T06:47:34.419Z,991.24
2022-11-29T06:48:34.457Z,991.27
2022-11-29T06:49:34.419Z,991.26
2022-11-29T06:50:34.378Z,991.31
2022-11-29T06:51:34.364Z,991.33
2022-11-29T06:52:34.418Z,991.33
2022-11-29T06:53:34.360Z,991.30
2022-11-29T06:54:34.377Z,991.34
2022-11-29T06:55:34.299Z,991.32
2022-11-29T06:56:34.316Z,991.34
2022-11-29T06:57:34.297Z,991.36
2022-11-29T06:58:36.248Z,991.40
2022-11-29T06:59:34.311Z,991.41
2022-11-29T07:00:34.294Z,991.43
2022-11-29T07:01:35.206Z,991.48
2022-11-29T07:02:34.217Z,991.48
2022-11-29T07:03:34.225Z,991.47
2022-11-29T07:04:34.218Z,991.50
2022-11-29T07:05:34.180Z,991.53
2022-11-29T07:06:34.166Z,991.51
2022-11-29T07:07:34.190Z,991.54
2022-11-29T07:08:34.169Z,991.53
2022-11-29T07:09:34.311Z,991.57
2022-11-29T07:10:34.113Z,991.57
2022-11-29T07:11:34.853Z,991.59
2022-11-29T07:12:34.094Z,991.62
2022-11-29T07:13:34.106Z,991.63
2022-11-29T07:14:34.117Z,991.64
2022-11-29T07:15:34.063Z,991.64
2022-11-29T07:16:34.224Z,991.65
2022-11-29T07:17:34.192Z,991.69
2022-11-29T07:18:34.052Z,991.70
2022-11-29T07:19:34.052Z,991.71
2022-11-29T07:20:34.054Z,991.69
2022-11-29T07:21:34.074Z,991.72
2022-11-29T07:22:33.964Z,991.66
2022-11-29T07:23:33.964Z,991.69
2022-11-29T07:24:33.987Z,991.73
2022-11-29T07:25:33.919Z,991.73
2022-11-29T07:26:33.914Z,991.71
2022-11-29T07:27:33.896Z,991.71
2022-11-29T07:28:33.941Z,991.78
2022-11-29T07:29:33.856Z,991.74
2022-11-29T07:30:33.901Z,991.77
2022-11-29T07:31:33.863Z,991.78
2022-11-29T07:32:34.254Z,991.78
2022-11-29T07:33:33.974Z,991.80
2022-11-29T07:34:33.793Z,991.77
2022-11-29T07:35:33.795Z,991.80
2022-11-29T07:36:33.813Z,991.79
2022-11-29T07:37:33.757Z,991.81
2022-11-29T07:38:36.051Z,991.83
2022-11-29T07:39:33.734Z,991.82
2022-11-29T07:40:37.568Z,991.82
2022-11-29T07:41:33.882Z,991.83
2022-11-29T07:42:33.733Z,991.82
2022-11-29T07:43:33.737Z,991.82
2022-11-29T07:44:33.712Z,991.84
2022-11-29T07:45:33.682Z,991.82
2022-11-29T07:46:33.704Z,991.85
2022-11-29T07:47:35.887Z,991.86
2022-11-29T07:48:33.672Z,991.87
2022-11-29T07:49:33.679Z,991.91
2022-11-29T07:50:33.602Z,991.91
2022-11-29T07:51:33.581Z,991.89
2022-11-29T07:52:33.563Z,991.96
2022-11-29T07:53:33.592Z,991.94
2022-11-29T07:54:33.563Z,991.92
2022-11-29T07:55:33.578Z,991.97
2022-11-29T07:56:33.522Z,991.96
2022-11-29T07:57:33.516Z,992.00
2022-11-29T07:58:33.545Z,992.03
2022-11-29T07:59:33.509Z,992.04
2022-11-29T08:00:33.487Z,992.02
2022-11-29T08:01:33.449Z,991.99
2022-11-29T08:02:33.967Z,991.98
2022-11-29T08:03:33.530Z,992.08
2022-11-29T08:04:33.412Z,992.04
2022-11-29T08:05:33.410Z,992.02
2022-11-29T08:06:33.400Z,992.04
2022-11-29T08:07:33.379Z,992.09
2022-11-29T08:08:35.104Z,992.06
2022-11-29T08:09:33.341Z,992.06
2022-11-29T08:10:33.428Z,992.07
2022-11-29T08:11:33.340Z,992.09
2022-11-29T08:12:33.301Z,992.06
2022-11-29T08:13:33.509Z,992.05
2022-11-29T08:14:33.290Z,992.08
2022-11-29T08:15:33.950Z,992.06
2022-11-29T08:16:33.288Z,992.11
2022-11-29T08:17:33.232Z,992.06
2022-11-29T08:18:33.280Z,992.08
2022-11-29T08:19:33.224Z,992.09
2022-11-29T08:20:33.211Z,992.10
2022-11-29T08:21:33.189Z,992.10
2022-11-29T08:22:33.178Z,992.15
2022-11-29T08:23:33.179Z,992.13
2022-11-29T08:24:33.168Z,992.13
2022-11-29T08:25:33.130Z,992.15
2022-11-29T08:26:33.119Z,992.16
2022-11-29T08:27:33.108Z,992.15
2022-11-29T08:28:33.117Z,992.17
2022-11-29T08:29:33.100Z,992.18
2022-11-29T08:30:33.080Z,992.21
2022-11-29T08:31:33.105Z,992.17
2022-11-29T08:32:33.047Z,992.18
2022-11-29T08:33:33.087Z,992.18
2022-11-29T08:34:33.016Z,992.22
2022-11-29T08:35:33.003Z,992.24
2022-11-29T08:36:33.008Z,992.22
2022-11-29T08:37:32.999Z,992.22
2022-11-29T08:38:32.997Z,992.22
2022-11-29T08:39:32.967Z,992.22
2022-11-29T08:40:32.961Z,992.26
2022-11-29T08:41:32.925Z,992.21
2022-11-29T08:42:32.928Z,992.28
2022-11-29T08:43:32.927Z,992.31
2022-11-29T08:44:32.956Z,992.28
2022-11-29T08:45:32.921Z,992.28
2022-11-29T08:46:32.861Z,992.32
2022-11-29T08:47:32.874Z,992.32
2022-11-29T08:48:33.025Z,992.28
2022-11-29T08:49:32.856Z,992.29
2022-11-29T08:50:32.853Z,992.31
2022-11-29T08:51:32.806Z,992.33
2022-11-29T08:52:33.248Z,992.33
2022-11-29T08:53:32.766Z,992.32
2022-11-29T08:54:33.046Z,992.31
2022-11-29T08:55:32.744Z,992.31
2022-11-29T08:57:16.622Z,992.30
2022-11-29T08:57:41.389Z,992.32
2022-11-29T08:58:33.715Z,992.30
2022-11-29T08:59:32.744Z,992.33
2022-11-29T09:00:32.685Z,992.35
2022-11-29T09:01:32.712Z,992.39
2022-11-29T09:02:33.625Z,992.34
2022-11-29T09:03:32.667Z,992.38
2022-11-29T09:04:32.656Z,992.37
2022-11-29T09:05:32.619Z,992.42
2022-11-29T09:06:32.601Z,992.41
2022-11-29T09:07:32.635Z,992.43
2022-11-29T09:08:33.365Z,992.46
2022-11-29T09:09:32.660Z,992.46
2022-11-29T09:10:32.556Z,992.50
2022-11-29T09:11:32.534Z,992.49
2022-11-29T09:12:32.524Z,992.51
2022-11-29T09:13:32.519Z,992.51
2022-11-29T09:14:32.598Z,992.52
2022-11-29T09:15:32.486Z,992.51
2022-11-29T09:16:32.504Z,992.55
2022-11-29T09:17:32.453Z,992.58
2022-11-29T09:18:32.938Z,992.54
2022-11-29T09:19:32.997Z,992.58
2022-11-29T09:20:32.432Z,992.60
2022-11-29T09:21:32.403Z,992.62
2022-11-29T09:22:32.416Z,992.65
2022-11-29T09:23:32.391Z,992.64
2022-11-29T09:24:32.392Z,992.62
2022-11-29T09:25:32.364Z,992.64
2022-11-29T09:26:32.336Z,992.70
2022-11-29T09:27:32.325Z,992.74
2022-11-29T09:28:32.332Z,992.69
2022-11-29T09:29:32.342Z,992.70
2022-11-29T09:30:32.303Z,992.66
2022-11-29T09:31:32.312Z,992.71
2022-11-29T09:32:32.263Z,992.68
2022-11-29T09:33:32.257Z,992.68
2022-11-29T09:34:32.263Z,992.68
2022-11-29T09:35:32.234Z,992.74
2022-11-29T09:36:32.214Z,992.72
2022-11-29T09:37:32.315Z,992.71
2022-11-29T09:38:32.182Z,992.74
2022-11-29T09:39:32.213Z,992.73
2022-11-29T09:40:32.162Z,992.71
2022-11-29T09:41:32.155Z,992.74
2022-11-29T09:42:32.122Z,992.76
2022-11-29T09:43:32.133Z,992.78
2022-11-29T09:44:32.180Z,992.77
2022-11-29T09:45:32.135Z,992.75
2022-11-29T09:46:32.082Z,992.78
2022-11-29T09:47:32.074Z,992.79
2022-11-29T09:48:32.543Z,992.83
2022-11-29T09:49:32.071Z,992.82
2022-11-29T09:50:32.032Z,992.81
2022-11-29T09:51:32.023Z,992.81
2022-11-29T09:52:32.004Z,992.83
2022-11-29T09:53:31.991Z,992.83
2022-11-29T09:54:32.000Z,992.88
2022-11-29T09:55:31.971Z,992.81
2022-11-29T09:56:31.951Z,992.83
2022-11-29T09:57:31.940Z,992.83
2022-11-29T09:58:31.930Z,992.85
2022-11-29T09:59:31.940Z,992.86
2022-11-29T10:00:31.897Z,992.86
2022-11-29T10:01:31.932Z,992.86
2022-11-29T10:02:31.924Z,992.90
2022-11-29T10:03:31.870Z,992.84
2022-11-29T10:04:31.899Z,992.86
2022-11-29T10:05:32.641Z,992.86
2022-11-29T10:06:31.843Z,992.88
2022-11-29T10:07:36.165Z,992.86
2022-11-29T10:08:31.813Z,992.87
2022-11-29T10:09:33.939Z,992.84
2022-11-29T10:10:31.769Z,992.88
2022-11-29T10:11:31.769Z,992.90
2022-11-29T10:12:31.794Z,992.89
2022-11-29T10:13:31.737Z,992.87
2022-11-29T10:14:31.759Z,992.91
2022-11-29T10:15:31.795Z,992.88
2022-11-29T10:16:31.757Z,992.90
2022-11-29T10:17:31.691Z,992.90
2022-11-29T10:18:31.660Z,992.88
2022-11-29T10:19:31.699Z,992.88
2022-11-29T10:20:35.306Z,992.88
2022-11-29T10:21:32.637Z,992.86
2022-11-29T10:22:31.608Z,992.88
2022-11-29T10:23:31.610Z,992.89
2022-11-29T10:24:31.618Z,992.93
2022-11-29T10:25:31.656Z,992.94
2022-11-29T10:26:35.198Z,992.92
2022-11-29T10:27:31.556Z,992.90
2022-11-29T10:28:31.537Z,992.93
2022-11-29T10:29:31.578Z,992.90
2022-11-29T10:30:31.587Z,992.91
2022-11-29T10:31:31.511Z,992.88
2022-11-29T10:32:31.500Z,992.90
2022-11-29T10:33:31.549Z,992.93
2022-11-29T10:34:31.737Z,992.90
2022-11-29T10:35:31.590Z,992.96
2022-11-29T10:36:31.496Z,992.95
2022-11-29T10:37:31.467Z,992.92
2022-11-29T10:38:32.068Z,992.94
2022-11-29T10:39:31.456Z,992.94
2022-11-29T10:40:31.576Z,992.94
2022-11-29T10:41:32.126Z,992.96
2022-11-29T10:42:31.487Z,992.97
2022-11-29T10:43:31.347Z,992.98
2022-11-29T10:44:31.358Z,992.99
2022-11-29T10:45:31.326Z,992.98
2022-11-29T10:46:31.327Z,993.01
2022-11-29T10:47:31.305Z,992.98
2022-11-29T10:48:31.467Z,992.97
2022-11-29T10:49:31.436Z,992.98
2022-11-29T10:50:31.256Z,992.94
2022-11-29T10:51:31.256Z,993.00
2022-11-29T10:52:31.225Z,992.96
2022-11-29T10:53:35.606Z,992.95
2022-11-29T10:54:31.247Z,992.95
2022-11-29T10:55:31.186Z,992.95
2022-11-29T10:56:31.188Z,992.92
2022-11-29T10:57:31.276Z,992.94
2022-11-29T10:58:31.147Z,992.93
2022-11-29T10:59:31.156Z,992.93
2022-11-29T11:00:31.141Z,992.98
2022-11-29T11:01:31.940Z,992.94
2022-11-29T11:02:31.097Z,992.95
2022-11-29T11:03:31.086Z,992.91
2022-11-29T11:04:31.116Z,992.94
2022-11-29T11:05:31.185Z,992.94
2022-11-29T11:06:31.044Z,992.98
2022-11-29T11:07:31.094Z,992.94
2022-11-29T11:08:31.014Z,992.92
2022-11-29T11:09:31.037Z,992.92
2022-11-29T11:10:31.014Z,992.91
2022-11-29T11:11:31.000Z,992.89
2022-11-29T11:12:31.112Z,992.93
2022-11-29T11:13:31.198Z,992.88
2022-11-29T11:14:31.008Z,992.89
2022-11-29T11:15:31.084Z,992.93
2022-11-29T11:16:36.765Z,992.94
2022-11-29T11:17:31.993Z,992.95
2022-11-29T11:18:30.955Z,992.94
2022-11-29T11:19:31.075Z,992.93
2022-11-29T11:20:30.864Z,992.93
2022-11-29T11:21:30.877Z,992.93
2022-11-29T11:22:30.964Z,992.91
2022-11-29T11:23:30.838Z,992.88
2022-11-29T11:24:30.916Z,992.91
2022-11-29T11:25:30.965Z,992.90
2022-11-29T11:26:30.804Z,992.88
2022-11-29T11:27:30.784Z,992.91
2022-11-29T11:28:30.765Z,992.95
2022-11-29T11:29:30.813Z,992.95
2022-11-29T11:30:30.778Z,992.94
2022-11-29T11:31:30.743Z,992.98
2022-11-29T11:32:30.710Z,992.93
2022-11-29T11:33:30.708Z,992.93
2022-11-29T11:34:30.742Z,992.93
2022-11-29T11:35:30.694Z,992.93
2022-11-29T11:36:31.606Z,992.99
2022-11-29T11:37:30.800Z,992.96
2022-11-29T11:38:32.175Z,992.99
2022-11-29T11:39:30.713Z,992.98
2022-11-29T11:40:30.739Z,993.02
2022-11-29T11:41:30.602Z,993.02
2022-11-29T11:42:30.604Z,993.04
2022-11-29T11:43:30.686Z,993.05
2022-11-29T11:44:46.788Z,993.03
2022-11-29T11:45:31.574Z,993.05
2022-11-29T11:46:30.674Z,993.01
2022-11-29T11:47:30.551Z,993.04
2022-11-29T11:48:30.512Z,993.06
2022-11-29T11:49:30.492Z,993.07
2022-11-29T11:50:30.504Z,993.04
2022-11-29T11:51:30.471Z,993.08
2022-11-29T11:52:32.956Z,993.10
2022-11-29T11:53:31.152Z,993.06
2022-11-29T11:54:30.431Z,993.11
2022-11-29T11:55:30.504Z,993.10
2022-11-29T11:56:30.404Z,993.14
2022-11-29T11:57:30.394Z,993.11
2022-11-29T11:58:30.381Z,993.10
2022-11-29T11:59:30.362Z,993.13
2022-11-29T12:01:01.861Z,993.14
2022-11-29T12:01:31.370Z,993.13
2022-11-29T12:02:30.444Z,993.12
2022-11-29T12:03:30.369Z,993.09
2022-11-29T12:04:30.320Z,993.11
2022-11-29T12:05:30.322Z,993.13
2022-11-29T12:06:30.283Z,993.14
2022-11-29T12:08:05.627Z,993.13
2022-11-29T12:08:31.306Z,993.17
2022-11-29T12:09:31.011Z,993.11
2022-11-29T12:10:30.261Z,993.16
2022-11-29T12:11:30.231Z,993.14
2022-11-29T12:12:30.209Z,993.21
2022-11-29T12:13:30.182Z,993.20
2022-11-29T12:14:30.187Z,993.19
2022-11-29T12:15:30.250Z,993.19
2022-11-29T12:16:30.140Z,993.20
2022-11-29T12:17:30.133Z,993.17
2022-11-29T12:18:30.111Z,993.19
2022-11-29T12:19:30.110Z,993.21
2022-11-29T12:20:30.588Z,993.21
2022-11-29T12:21:30.099Z,993.16
2022-11-29T12:22:30.185Z,993.14
2022-11-29T12:23:30.066Z,993.18
2022-11-29T12:24:30.039Z,993.20
2022-11-29T12:25:30.069Z,993.21
2022-11-29T12:26:55.829Z,993.20
2022-11-29T12:27:31.009Z,993.25
2022-11-29T12:28:29.990Z,993.30